Time;durP1;ratioP1;P1;durP2;ratioP2;P2;SDS_P1;SDS_P2;PMS_P1;PMS_P2;Temp;Humidity;BMP_temperature;BMP_pressure;BME280_temperature;BME280_humidity;BME280_pressure;Samples;Min_cycle;Max_cycle;Signal;HPM_P1;HPM_P2
2022/07/18 00:01:04;;;;;;;4.67;3.67;;;25.00;46.80;;;;;;4999590;28;20235;-71
2022/07/18 00:03:30;;;;;;;4.77;3.40;;;25.00;47.00;;;;;;5002405;28;20185;-72
2022/07/18 00:05:56;;;;;;;4.03;3.67;;;24.90;47.10;;;;;;4999111;28;20203;-71
2022/07/18 00:08:21;;;;;;;3.63;3.33;;;24.80;47.10;;;;;;5003898;28;20185;-72
2022/07/18 00:10:47;;;;;;;4.23;3.20;;;24.80;47.20;;;;;;4998451;28;20189;-74
2022/07/18 00:13:12;;;;;;;5.20;3.87;;;24.70;47.20;;;;;;4999386;28;20594;-73
2022/07/18 00:15:38;;;;;;;5.30;3.50;;;24.70;47.40;;;;;;5003331;28;20223;-72
2022/07/18 00:18:04;;;;;;;6.70;3.87;;;24.60;47.50;;;;;;5004114;28;20239;-72
2022/07/18 00:20:29;;;;;;;3.43;3.13;;;24.60;47.70;;;;;;5002139;28;20181;-72
2022/07/18 00:22:55;;;;;;;3.60;3.30;;;24.50;47.60;;;;;;5000227;28;20216;-72
2022/07/18 00:25:22;;;;;;;5.03;3.53;;;24.50;47.70;;;;;;5002773;28;20292;-72
2022/07/18 00:27:48;;;;;;;4.63;3.70;;;24.40;47.70;;;;;;5004267;28;20193;-72
2022/07/18 00:30:13;;;;;;;4.27;3.87;;;24.40;47.80;;;;;;5001741;28;20440;-72
2022/07/18 00:32:40;;;;;;;4.77;3.30;;;24.30;47.80;;;;;;5004346;28;20534;-72
2022/07/18 00:35:06;;;;;;;4.30;3.20;;;24.30;47.80;;;;;;5000372;28;20212;-72
2022/07/18 00:37:32;;;;;;;5.03;3.90;;;24.30;47.90;;;;;;4996358;28;20436;-72
2022/07/18 00:39:57;;;;;;;3.83;3.53;;;24.20;47.80;;;;;;5003542;28;21226;-71
2022/07/18 00:42:23;;;;;;;3.43;3.13;;;24.10;48.00;;;;;;5003765;28;20356;-72
2022/07/18 00:44:53;;;;;;;4.33;3.70;;;24.10;48.20;;;;;;5003720;28;20189;-72
2022/07/18 00:47:19;;;;;;;4.17;3.40;;;24.10;48.20;;;;;;5005823;28;20193;-72
2022/07/18 00:49:45;;;;;;;4.00;3.60;;;24.00;48.40;;;;;;5002047;28;20527;-72
2022/07/18 00:52:12;;;;;;;6.10;3.37;;;24.00;48.50;;;;;;5000211;28;20452;-72
2022/07/18 00:54:38;;;;;;;4.53;3.50;;;24.00;48.50;;;;;;5002004;28;20209;-72
2022/07/18 00:57:03;;;;;;;3.53;3.23;;;24.00;48.70;;;;;;5002887;28;20439;-73
2022/07/18 01:02:14;;;;;;;7.27;3.67;;;23.90;48.70;;;;;;5002956;28;20598;-72
2022/07/18 01:04:39;;;;;;;4.97;3.40;;;23.90;48.80;;;;;;5003750;28;20477;-73
2022/07/18 01:07:05;;;;;;;3.67;3.37;;;23.80;48.80;;;;;;5002515;28;20234;-72
2022/07/18 01:09:32;;;;;;;3.80;3.50;;;23.80;48.80;;;;;;5001300;28;20200;-72
2022/07/18 01:11:57;;;;;;;3.53;3.23;;;23.70;49.00;;;;;;4990688;28;20255;-73
2022/07/18 01:14:23;;;;;;;5.63;3.60;;;23.70;49.20;;;;;;5001901;28;21370;-72
2022/07/18 01:16:49;;;;;;;4.00;3.70;;;23.70;49.20;;;;;;5002993;28;20208;-71
2022/07/18 01:19:15;;;;;;;3.90;3.30;;;23.60;49.20;;;;;;4997705;28;20189;-71
2022/07/18 01:21:40;;;;;;;7.80;3.63;;;23.60;50.00;;;;;;5003288;28;20563;-72
2022/07/18 01:24:06;;;;;;;4.00;3.13;;;23.50;49.60;;;;;;5000024;28;20268;-71
2022/07/18 01:26:33;;;;;;;4.10;3.50;;;23.40;49.50;;;;;;5001898;28;20201;-73
2022/07/18 01:28:59;;;;;;;3.60;3.30;;;23.40;49.50;;;;;;5000941;28;20260;-72
2022/07/18 01:31:25;;;;;;;4.90;3.30;;;23.30;49.50;;;;;;5000866;28;20924;-73
2022/07/18 01:33:54;;;;;;;4.97;3.37;;;23.30;49.60;;;;;;5001129;28;20173;-72
2022/07/18 01:36:19;;;;;;;4.23;2.90;;;23.30;49.50;;;;;;5001745;28;20658;-72
2022/07/18 01:38:45;;;;;;;3.30;3.00;;;23.30;49.50;;;;;;5000021;28;20532;-72
2022/07/18 01:41:10;;;;;;;3.70;3.10;;;23.20;50.10;;;;;;5000167;28;20581;-70
2022/07/18 01:43:41;;;;;;;3.33;3.03;;;23.20;49.50;;;;;;5000631;28;20193;-70
2022/07/18 01:46:11;;;;;;;3.77;3.47;;;23.20;49.50;;;;;;4991124;28;20201;-72
2022/07/18 01:48:40;;;;;;;6.20;3.27;;;23.10;49.40;;;;;;4998265;28;20436;-71
2022/07/18 01:51:10;;;;;;;4.07;3.47;;;23.10;49.40;;;;;;4997598;28;20429;-71
2022/07/18 01:53:40;;;;;;;3.23;2.83;;;23.10;49.40;;;;;;4999799;28;20435;-72
2022/07/18 01:56:07;;;;;;;4.80;3.40;;;23.10;49.40;;;;;;4999911;28;20516;-71
2022/07/18 01:58:32;;;;;;;6.50;3.80;;;23.00;49.40;;;;;;5002578;28;20444;-72
2022/07/18 02:00:58;;;;;;;6.17;3.60;;;23.00;49.30;;;;;;4999810;28;20440;-74
2022/07/18 02:03:24;;;;;;;4.17;3.20;;;23.00;49.40;;;;;;4999996;28;20311;-71
2022/07/18 02:05:49;;;;;;;4.17;3.77;;;23.00;49.10;;;;;;5000021;28;20562;-72
2022/07/18 02:08:15;;;;;;;3.90;3.50;;;23.00;49.10;;;;;;5001301;28;20184;-73
2022/07/18 02:10:41;;;;;;;3.40;3.10;;;22.90;49.10;;;;;;5001909;28;20771;-73
2022/07/18 02:13:06;;;;;;;4.40;3.47;;;22.90;49.20;;;;;;4999217;28;20686;-73
2022/07/18 02:15:32;;;;;;;4.30;3.40;;;22.90;49.30;;;;;;5002067;28;20185;-73
2022/07/18 02:17:58;;;;;;;3.53;3.23;;;22.90;49.40;;;;;;5002519;28;20574;-73
2022/07/18 02:20:24;;;;;;;5.37;3.13;;;22.90;49.50;;;;;;4989744;28;20666;-72
2022/07/18 02:22:49;;;;;;;3.80;3.30;;;22.80;50.10;;;;;;4993524;28;20464;-73
2022/07/18 02:25:15;;;;;;;4.37;3.33;;;22.80;49.50;;;;;;5003429;28;20185;-72
2022/07/18 02:27:41;;;;;;;3.90;3.50;;;22.80;49.50;;;;;;5001052;28;20267;-73
2022/07/18 02:30:09;;;;;;;4.30;3.67;;;22.70;49.50;;;;;;5000123;28;20181;-73
2022/07/18 02:32:37;;;;;;;4.40;3.50;;;22.80;49.80;;;;;;5001765;28;20259;-73
2022/07/18 02:35:04;;;;;;;4.20;3.47;;;22.70;49.90;;;;;;4999623;28;20486;-73
2022/07/18 02:37:30;;;;;;;3.60;3.27;;;22.70;50.00;;;;;;5017321;28;20451;-72
2022/07/18 02:39:55;;;;;;;3.67;3.27;;;22.70;50.10;;;;;;5000997;28;20432;-73
2022/07/18 02:42:21;;;;;;;3.10;2.80;;;22.60;50.20;;;;;;5000028;28;20638;-73
2022/07/18 02:44:47;;;;;;;3.90;3.10;;;22.60;50.30;;;;;;4999207;28;20239;-73
2022/07/18 02:47:13;;;;;;;5.67;3.93;;;22.60;50.50;;;;;;5000377;28;22533;-73
2022/07/18 02:49:39;;;;;;;3.77;3.43;;;22.50;50.50;;;;;;5000303;28;20606;-72
2022/07/18 02:52:08;;;;;;;3.97;3.40;;;22.50;50.60;;;;;;4996931;28;20196;-71
2022/07/18 02:54:35;;;;;;;5.30;3.20;;;22.50;50.60;;;;;;5001068;28;20523;-72
2022/07/18 02:57:02;;;;;;;3.57;3.27;;;22.40;50.50;;;;;;4991606;28;20923;-71
2022/07/18 02:59:28;;;;;;;3.43;3.13;;;22.40;50.60;;;;;;4998733;28;20963;-72
2022/07/18 03:01:55;;;;;;;5.70;3.60;;;22.40;50.70;;;;;;4999560;28;20472;-71
2022/07/18 03:04:21;;;;;;;5.40;3.50;;;22.30;50.80;;;;;;5000397;28;20470;-71
2022/07/18 03:06:47;;;;;;;3.80;3.37;;;22.30;50.80;;;;;;5000928;28;21150;-72
2022/07/18 03:09:14;;;;;;;7.37;3.60;;;22.30;50.80;;;;;;5001176;28;20196;-72
2022/07/18 03:11:40;;;;;;;3.37;3.07;;;22.30;50.90;;;;;;5001384;28;20542;-72
2022/07/18 03:14:05;;;;;;;5.80;3.37;;;22.30;51.00;;;;;;5000341;28;20538;-72
2022/07/18 03:16:31;;;;;;;3.70;3.20;;;22.20;51.00;;;;;;5000773;28;20295;-72
2022/07/18 03:18:57;;;;;;;4.03;3.60;;;22.20;51.00;;;;;;5000133;28;20184;-72
2022/07/18 03:21:23;;;;;;;4.97;3.20;;;22.20;51.20;;;;;;5000662;28;20212;-72
2022/07/18 03:23:48;;;;;;;3.77;3.43;;;22.10;51.20;;;;;;5002681;28;20177;-72
2022/07/18 03:26:14;;;;;;;4.87;3.07;;;22.00;51.50;;;;;;5000322;28;20236;-72
2022/07/18 03:28:39;;;;;;;3.70;3.10;;;22.00;51.60;;;;;;4996960;28;20189;-72
2022/07/18 03:31:05;;;;;;;3.23;2.93;;;22.00;51.60;;;;;;4993496;28;20235;-73
2022/07/18 03:33:31;;;;;;;5.00;3.23;;;22.00;51.50;;;;;;4992220;28;20205;-72
2022/07/18 03:35:56;;;;;;;3.93;3.53;;;22.00;51.40;;;;;;5002144;28;20173;-72
2022/07/18 03:38:22;;;;;;;4.73;3.40;;;22.00;51.40;;;;;;5000153;28;20224;-73
2022/07/18 03:40:47;;;;;;;4.97;3.20;;;22.00;51.40;;;;;;4999845;28;20185;-71
2022/07/18 03:43:13;;;;;;;4.50;3.37;;;22.00;51.30;;;;;;5002130;28;20476;-71
2022/07/18 03:45:39;;;;;;;3.00;2.80;;;22.00;51.30;;;;;;4998390;28;20189;-71
2022/07/18 03:48:05;;;;;;;5.53;3.87;;;22.00;51.20;;;;;;5000496;28;20216;-72
2022/07/18 03:50:30;;;;;;;3.47;3.17;;;22.00;51.20;;;;;;4999631;28;20640;-72
2022/07/18 03:52:57;;;;;;;4.63;3.30;;;21.90;51.00;;;;;;5000882;28;20208;-72
2022/07/18 03:55:23;;;;;;;4.13;3.27;;;21.90;50.90;;;;;;5005370;28;20220;-71
2022/07/18 03:57:48;;;;;;;3.60;3.10;;;21.90;50.90;;;;;;5002309;28;20446;-72
2022/07/18 04:00:15;;;;;;;3.83;3.40;;;21.90;51.00;;;;;;4996264;28;20455;-74
2022/07/18 04:02:45;;;;;;;4.37;3.50;;;21.90;51.00;;;;;;5000199;28;20225;-72
2022/07/18 04:05:12;;;;;;;3.47;2.97;;;21.90;51.00;;;;;;4996612;28;20439;-73
2022/07/18 04:07:38;;;;;;;4.00;3.57;;;21.90;50.80;;;;;;4999529;28;20537;-74
2022/07/18 04:10:05;;;;;;;4.37;3.67;;;21.90;50.70;;;;;;5004228;28;20478;-72
2022/07/18 04:12:30;;;;;;;3.70;3.30;;;21.90;50.80;;;;;;4996001;28;20543;-71
2022/07/18 04:14:56;;;;;;;4.87;3.77;;;21.90;50.80;;;;;;5003305;28;20570;-71
2022/07/18 04:17:22;;;;;;;3.90;3.60;;;21.90;51.30;;;;;;5002875;28;22606;-71
2022/07/18 04:19:48;;;;;;;3.73;3.43;;;21.90;51.10;;;;;;5003027;28;20798;-71
2022/07/18 04:22:13;;;;;;;4.03;3.50;;;22.00;51.00;;;;;;5002549;28;20209;-71
2022/07/18 04:24:39;;;;;;;5.83;3.23;;;21.90;51.10;;;;;;5003413;28;20220;-74
2022/07/18 04:27:04;;;;;;;5.33;3.47;;;21.90;51.30;;;;;;5001639;28;20635;-71
2022/07/18 04:29:31;;;;;;;3.80;3.50;;;21.90;51.40;;;;;;5001875;28;20182;-74
2022/07/18 04:31:57;;;;;;;4.00;3.60;;;21.90;51.20;;;;;;5001273;28;20209;-73
2022/07/18 04:34:23;;;;;;;5.97;3.30;;;21.80;50.90;;;;;;5002405;28;20941;-73
2022/07/18 04:36:49;;;;;;;5.30;3.80;;;21.90;50.80;;;;;;5004201;28;20446;-73
2022/07/18 04:39:16;;;;;;;4.63;4.20;;;21.90;50.80;;;;;;5005435;28;20260;-72
2022/07/18 04:41:42;;;;;;;4.70;4.30;;;21.90;50.80;;;;;;5005035;28;20205;-75
2022/07/18 04:44:07;;;;;;;6.40;5.80;;;22.00;50.90;;;;;;5009371;28;20513;-72
2022/07/18 04:46:33;;;;;;;4.67;4.10;;;22.00;50.70;;;;;;4994759;28;20856;-72
2022/07/18 04:48:59;;;;;;;3.87;3.47;;;21.90;50.70;;;;;;5003111;28;20217;-72
2022/07/18 04:51:24;;;;;;;4.07;3.67;;;21.90;50.70;;;;;;5001803;28;20585;-72
2022/07/18 04:53:50;;;;;;;4.00;3.70;;;21.90;50.70;;;;;;5003999;28;20623;-71
2022/07/18 04:56:15;;;;;;;3.60;3.30;;;21.90;50.60;;;;;;5001480;28;20181;-72
2022/07/18 04:58:41;;;;;;;7.17;4.00;;;21.90;50.80;;;;;;4995896;28;20231;-72
2022/07/18 05:01:06;;;;;;;9.93;3.73;;;21.90;51.20;;;;;;4995683;28;20185;-72
2022/07/18 05:03:32;;;;;;;4.90;3.77;;;21.90;51.00;;;;;;5003639;28;20208;-72
2022/07/18 05:05:58;;;;;;;7.47;5.33;;;21.90;51.10;;;;;;5001845;28;20237;-72
2022/07/18 05:08:23;;;;;;;5.23;3.93;;;21.90;51.10;;;;;;5003076;28;20744;-72
2022/07/18 05:10:49;;;;;;;4.47;3.67;;;21.90;51.30;;;;;;5003711;28;20280;-73
2022/07/18 05:13:14;;;;;;;6.10;4.07;;;21.90;51.10;;;;;;5002407;28;20635;-72
2022/07/18 05:15:40;;;;;;;6.00;3.50;;;21.90;51.10;;;;;;4999865;28;20174;-71
2022/07/18 05:18:06;;;;;;;5.03;3.80;;;21.90;50.90;;;;;;5001622;28;20264;-72
2022/07/18 05:20:31;;;;;;;4.00;3.40;;;21.90;50.80;;;;;;5001776;28;20185;-72
2022/07/18 05:22:57;;;;;;;5.27;4.07;;;21.90;51.00;;;;;;5000643;28;20273;-72
2022/07/18 05:25:23;;;;;;;4.47;3.60;;;21.90;51.10;;;;;;5000842;28;20920;-72
2022/07/18 05:27:49;;;;;;;6.40;3.47;;;21.90;51.40;;;;;;5001188;28;20198;-72
2022/07/18 05:30:15;;;;;;;6.17;3.20;;;21.90;51.70;;;;;;4997000;28;21017;-72
2022/07/18 05:32:42;;;;;;;9.70;4.30;;;21.90;51.60;;;;;;4994656;28;20222;-72
2022/07/18 05:35:09;;;;;;;5.60;4.10;;;22.00;51.70;;;;;;5002602;28;20995;-72
2022/07/18 05:37:36;;;;;;;4.53;3.93;;;22.10;52.10;;;;;;5001704;28;20505;-72
2022/07/18 05:40:06;;;;;;;5.00;3.93;;;22.00;52.60;;;;;;4996900;28;20790;-72
2022/07/18 05:42:31;;;;;;;5.57;3.90;;;22.00;52.90;;;;;;5000252;28;20484;-72
2022/07/18 05:44:57;;;;;;;5.40;3.40;;;22.00;53.00;;;;;;5001358;28;20448;-72
2022/07/18 05:47:23;;;;;;;6.10;3.70;;;22.10;53.00;;;;;;5002687;28;20682;-73
2022/07/18 05:49:48;;;;;;;3.73;3.43;;;22.10;53.00;;;;;;4999596;28;20176;-71
2022/07/18 05:52:14;;;;;;;5.00;3.63;;;22.10;52.80;;;;;;4998810;28;20690;-72
2022/07/18 05:54:39;;;;;;;4.90;4.37;;;22.10;53.10;;;;;;4999549;28;20196;-73
2022/07/18 05:57:05;;;;;;;8.10;4.03;;;22.10;53.10;;;;;;5001389;28;20181;-72
2022/07/18 05:59:31;;;;;;;7.03;4.17;;;22.10;53.30;;;;;;4999874;28;20192;-71
2022/07/18 06:01:57;;;;;;;7.00;4.50;;;22.10;53.50;;;;;;5000928;28;20980;-72
2022/07/18 06:04:22;;;;;;;5.50;3.70;;;22.10;53.40;;;;;;4999766;28;20185;-71
2022/07/18 06:06:49;;;;;;;5.60;4.23;;;22.20;53.20;;;;;;4995195;28;20350;-72
2022/07/18 06:09:16;;;;;;;4.50;3.80;;;22.10;53.00;;;;;;5001459;28;20177;-71
2022/07/18 06:11:42;;;;;;;5.37;4.00;;;22.20;53.30;;;;;;4998366;28;20496;-72
2022/07/18 06:14:08;;;;;;;8.00;4.43;;;22.20;53.10;;;;;;4998698;28;20447;-72
2022/07/18 06:16:34;;;;;;;6.07;5.30;;;22.30;52.90;;;;;;5000454;28;20440;-72
2022/07/18 06:18:59;;;;;;;8.63;4.63;;;22.30;52.90;;;;;;5000747;28;20589;-71
2022/07/18 06:21:25;;;;;;;7.13;6.43;;;22.40;52.80;;;;;;5001472;28;20221;-71
2022/07/18 06:23:51;;;;;;;6.53;4.10;;;22.50;52.60;;;;;;5003986;28;20197;-72
2022/07/18 06:26:17;;;;;;;6.67;6.07;;;22.50;52.70;;;;;;5002307;28;20994;-72
2022/07/18 06:28:43;;;;;;;4.53;3.63;;;22.60;52.10;;;;;;5000803;28;20503;-72
2022/07/18 06:31:08;;;;;;;4.33;3.53;;;22.70;51.90;;;;;;5000410;28;20189;-72
2022/07/18 06:33:34;;;;;;;5.60;4.00;;;22.70;51.80;;;;;;5002426;28;20317;-72
2022/07/18 06:35:59;;;;;;;10.17;6.30;;;22.70;51.60;;;;;;5000526;28;20181;-72
2022/07/18 06:38:25;;;;;;;6.50;4.07;;;22.70;51.50;;;;;;5000632;28;20879;-72
2022/07/18 06:40:51;;;;;;;5.27;4.57;;;22.80;51.60;;;;;;5001008;28;20192;-72
2022/07/18 06:43:19;;;;;;;6.13;4.40;;;22.80;51.40;;;;;;5002156;28;20197;-71
2022/07/18 06:45:48;;;;;;;6.70;4.20;;;22.80;51.60;;;;;;5014424;28;21273;-72
2022/07/18 06:48:15;;;;;;;6.53;5.63;;;22.90;51.60;;;;;;5000941;28;20528;-72
2022/07/18 06:50:41;;;;;;;4.17;3.77;;;23.00;51.60;;;;;;4999068;28;20880;-74
2022/07/18 06:53:07;;;;;;;6.30;4.17;;;23.00;52.10;;;;;;5001883;28;20459;-71
2022/07/18 06:55:33;;;;;;;6.70;3.50;;;23.10;51.30;;;;;;4999530;28;20659;-71
2022/07/18 06:57:58;;;;;;;3.97;3.57;;;23.20;51.10;;;;;;5002726;28;20547;-72
2022/07/18 07:00:24;;;;;;;6.53;3.80;;;23.20;50.80;;;;;;4996047;28;20203;-74
2022/07/18 07:02:50;;;;;;;7.57;3.70;;;23.30;50.80;;;;;;5000012;28;20678;-73
2022/07/18 07:05:17;;;;;;;3.43;3.13;;;23.40;50.80;;;;;;4999895;28;20269;-73
2022/07/18 07:07:44;;;;;;;5.80;3.00;;;23.40;50.60;;;;;;5002285;28;20204;-73
2022/07/18 07:10:10;;;;;;;5.30;4.13;;;23.50;50.60;;;;;;5001219;28;20446;-72
2022/07/18 07:12:44;;;;;;;8.10;6.27;;;23.50;50.40;;;;;;5001499;28;20471;-73
2022/07/18 07:15:10;;;;;;;11.80;8.53;;;23.60;50.30;;;;;;4998959;28;20518;-72
2022/07/18 07:17:39;;;;;;;7.17;6.47;;;23.60;50.40;;;;;;5000723;28;20448;-72
2022/07/18 07:20:06;;;;;;;5.20;4.00;;;23.70;50.40;;;;;;4999823;28;20513;-73
2022/07/18 07:22:53;;;;;;;4.20;3.80;;;23.70;50.30;;;;;;4999603;28;20509;-73
2022/07/18 07:25:20;;;;;;;6.27;4.93;;;23.80;50.40;;;;;;5000531;28;20440;-73
2022/07/18 07:27:46;;;;;;;14.23;5.13;;;23.80;50.10;;;;;;5000698;28;20467;-73
2022/07/18 07:30:13;;;;;;;6.03;3.27;;;23.90;50.20;;;;;;4997556;28;20431;-72
2022/07/18 07:32:41;;;;;;;4.17;3.40;;;23.90;49.90;;;;;;5002073;28;20284;-72
2022/07/18 07:35:11;;;;;;;3.63;3.23;;;24.00;50.10;;;;;;4999995;28;20524;-72
2022/07/18 07:37:40;;;;;;;4.93;3.13;;;24.10;49.90;;;;;;5001299;28;20428;-73
2022/07/18 07:40:07;;;;;;;4.53;3.70;;;24.10;49.70;;;;;;4996506;28;20450;-73
2022/07/18 07:42:33;;;;;;;7.90;6.30;;;24.20;49.70;;;;;;5001330;28;20455;-73
2022/07/18 07:44:58;;;;;;;10.50;3.83;;;24.30;49.50;;;;;;4999240;28;20442;-72
2022/07/18 07:47:24;;;;;;;4.67;3.30;;;24.20;49.60;;;;;;5004741;28;20475;-72
2022/07/18 07:49:49;;;;;;;5.47;3.20;;;24.40;49.20;;;;;;5003542;28;20188;-72
2022/07/18 07:52:17;;;;;;;6.20;4.30;;;24.50;49.00;;;;;;5003446;28;20212;-71
2022/07/18 07:54:44;;;;;;;5.33;3.20;;;24.50;49.10;;;;;;5006057;28;20315;-71
2022/07/18 07:57:10;;;;;;;7.80;4.33;;;24.60;49.00;;;;;;5004868;28;20440;-71
2022/07/18 07:59:36;;;;;;;4.63;3.23;;;24.60;49.00;;;;;;4998037;28;20535;-71
2022/07/18 08:02:02;;;;;;;5.13;3.10;;;24.60;48.90;;;;;;5006311;28;20562;-70
2022/07/18 08:04:28;;;;;;;5.53;3.90;;;24.60;48.80;;;;;;5003094;28;20557;-71
2022/07/18 08:06:53;;;;;;;5.27;4.37;;;24.60;48.90;;;;;;5004496;28;20258;-71
2022/07/18 08:09:19;;;;;;;4.13;3.73;;;24.70;48.90;;;;;;5003282;28;20181;-72
2022/07/18 08:11:44;;;;;;;4.57;4.17;;;24.80;48.80;;;;;;5002691;28;20201;-72
2022/07/18 08:14:10;;;;;;;4.70;4.30;;;24.90;49.00;;;;;;5003135;28;20185;-72
2022/07/18 08:16:35;;;;;;;4.00;3.60;;;24.90;48.60;;;;;;5005470;28;20189;-72
2022/07/18 08:19:01;;;;;;;4.53;3.53;;;25.00;48.40;;;;;;4999974;28;20197;-72
2022/07/18 08:21:27;;;;;;;3.60;3.20;;;25.10;48.40;;;;;;5004187;28;20692;-72
2022/07/18 08:23:52;;;;;;;5.90;3.50;;;25.20;48.20;;;;;;5005654;28;20259;-73
2022/07/18 08:26:18;;;;;;;4.10;3.70;;;25.30;47.80;;;;;;5003756;28;20279;-73
2022/07/18 08:28:43;;;;;;;3.80;3.33;;;25.30;47.90;;;;;;5005058;28;20192;-73
2022/07/18 08:31:10;;;;;;;4.17;3.50;;;25.40;48.10;;;;;;5002443;28;20173;-73
2022/07/18 08:33:36;;;;;;;6.90;3.30;;;25.50;48.10;;;;;;5003921;28;20188;-73
2022/07/18 08:36:01;;;;;;;3.80;3.50;;;25.50;47.90;;;;;;5004310;28;20435;-73
2022/07/18 08:38:27;;;;;;;3.53;3.20;;;25.60;47.70;;;;;;5004694;28;20646;-72
2022/07/18 08:40:54;;;;;;;3.60;3.30;;;25.70;47.80;;;;;;5005556;28;20177;-73
2022/07/18 08:43:20;;;;;;;6.13;5.63;;;25.80;47.80;;;;;;5002387;28;20540;-73
2022/07/18 08:45:47;;;;;;;7.63;4.50;;;25.80;47.70;;;;;;5005021;28;20435;-72
2022/07/18 08:48:16;;;;;;;4.70;4.30;;;25.90;47.70;;;;;;5006746;28;20192;-73
2022/07/18 08:50:46;;;;;;;9.13;7.43;;;25.90;47.60;;;;;;5002508;28;20439;-72
2022/07/18 08:53:14;;;;;;;5.93;4.43;;;26.00;47.30;;;;;;5004133;28;20545;-72
2022/07/18 08:55:39;;;;;;;7.27;5.20;;;26.10;47.10;;;;;;5003288;28;20441;-72
2022/07/18 08:58:05;;;;;;;4.13;3.50;;;26.20;46.90;;;;;;5004240;28;20447;-73
2022/07/18 09:00:30;;;;;;;4.43;3.50;;;26.20;46.80;;;;;;5002519;28;20186;-72
2022/07/18 09:03:00;;;;;;;5.60;4.30;;;26.30;46.70;;;;;;5004643;28;20212;-71
2022/07/18 09:05:27;;;;;;;4.40;4.00;;;26.40;46.70;;;;;;5002977;28;20197;-73
2022/07/18 09:08:17;;;;;;;5.60;3.90;;;26.50;47.00;;;;;;5006187;28;20482;-73
2022/07/18 09:10:54;;;;;;;3.70;3.40;;;26.50;46.80;;;;;;5005600;28;20558;-73
2022/07/18 09:13:42;;;;;;;3.53;3.23;;;26.60;46.70;;;;;;5004595;28;20882;-71
2022/07/18 09:16:11;;;;;;;5.23;3.77;;;26.70;46.40;;;;;;5006009;28;20890;-72
2022/07/18 09:18:42;;;;;;;4.97;3.67;;;26.70;46.50;;;;;;5001634;28;20510;-72
2022/07/18 09:21:13;;;;;;;4.50;4.03;;;26.90;46.40;;;;;;5000234;28;20466;-74
2022/07/18 09:23:41;;;;;;;5.10;4.10;;;26.90;46.40;;;;;;5000422;28;20420;-74
2022/07/18 09:26:08;;;;;;;7.90;3.33;;;27.00;46.60;;;;;;5006742;28;20411;-74
2022/07/18 09:28:49;;;;;;;5.87;5.37;;;27.10;46.50;;;;;;4999292;28;20428;-72
2022/07/18 09:31:25;;;;;;;6.33;3.73;;;27.10;46.40;;;;;;5005263;28;20964;-72
2022/07/18 09:33:59;;;;;;;5.80;4.47;;;27.20;46.40;;;;;;5004158;28;20764;-73
2022/07/18 09:36:26;;;;;;;11.87;3.70;;;27.20;46.50;;;;;;4997874;28;20446;-72
2022/07/18 09:38:52;;;;;;;5.27;3.87;;;27.40;46.40;;;;;;5000096;28;20822;-71
2022/07/18 09:41:32;;;;;;;4.63;4.17;;;27.40;46.10;;;;;;4999202;28;20467;-72
2022/07/18 09:43:58;;;;;;;5.83;4.53;;;27.50;45.90;;;;;;5003399;28;20515;-73
2022/07/18 09:46:23;;;;;;;4.73;3.40;;;27.60;45.60;;;;;;5001055;28;21370;-73
2022/07/18 09:49:08;;;;;;;4.73;3.90;;;27.60;45.40;;;;;;5002804;28;20201;-71
2022/07/18 09:51:33;;;;;;;3.70;3.40;;;27.70;45.50;;;;;;5004446;28;20217;-71
2022/07/18 09:54:01;;;;;;;10.77;4.03;;;27.80;44.80;;;;;;5002192;28;20511;-74
2022/07/18 09:56:27;;;;;;;3.57;3.27;;;27.90;45.10;;;;;;5001397;28;20185;-73
2022/07/18 09:58:55;;;;;;;5.13;3.40;;;27.90;45.30;;;;;;5004374;28;20444;-72
2022/07/18 10:01:21;;;;;;;5.20;4.80;;;28.00;45.20;;;;;;4999006;28;20495;-73
2022/07/18 10:03:50;;;;;;;5.80;3.50;;;28.00;45.00;;;;;;4998431;28;20432;-71
2022/07/18 10:06:16;;;;;;;4.00;3.27;;;28.00;44.00;;;;;;4999165;28;20466;-73
2022/07/18 10:08:42;;;;;;;4.60;4.17;;;28.10;44.20;;;;;;5001517;28;20443;-71
2022/07/18 10:11:08;;;;;;;4.60;3.47;;;28.10;44.00;;;;;;5000129;28;20523;-73
2022/07/18 10:13:36;;;;;;;4.30;3.70;;;28.20;44.30;;;;;;4998583;28;20543;-72
2022/07/18 10:16:03;;;;;;;3.57;3.27;;;28.30;44.40;;;;;;5002129;28;20191;-72
2022/07/18 10:18:32;;;;;;;3.90;3.50;;;28.40;44.20;;;;;;5002374;28;20432;-72
2022/07/18 10:21:09;;;;;;;6.10;5.43;;;28.40;43.90;;;;;;5000927;28;20427;-72
2022/07/18 10:23:39;;;;;;;5.83;4.07;;;28.50;43.80;;;;;;5001334;28;20439;-72
2022/07/18 10:26:14;;;;;;;4.77;4.20;;;28.50;44.00;;;;;;5002525;28;20450;-72
2022/07/18 10:28:55;;;;;;;8.03;3.43;;;28.60;44.00;;;;;;5000578;28;20450;-72
2022/07/18 10:31:23;;;;;;;4.57;3.80;;;28.70;44.00;;;;;;4999940;28;20456;-74
2022/07/18 10:33:49;;;;;;;3.73;3.43;;;28.70;43.80;;;;;;5000797;28;20436;-74
2022/07/18 10:36:19;;;;;;;10.13;3.47;;;28.80;43.20;;;;;;5002898;28;20439;-73
2022/07/18 10:39:06;;;;;;;10.67;4.00;;;28.80;42.80;;;;;;5000882;28;20550;-74
2022/07/18 10:41:32;;;;;;;4.60;4.03;;;29.00;42.90;;;;;;4999872;28;20841;-73
2022/07/18 10:43:57;;;;;;;4.20;3.80;;;29.00;42.50;;;;;;4983571;28;20428;-73
2022/07/18 10:46:23;;;;;;;7.23;3.80;;;29.00;42.70;;;;;;5003310;28;20471;-73
2022/07/18 10:48:54;;;;;;;4.17;3.87;;;29.00;42.60;;;;;;5001525;28;20949;-73
2022/07/18 10:51:27;;;;;;;4.13;3.83;;;29.10;42.80;;;;;;4999617;28;20204;-73
2022/07/18 10:54:01;;;;;;;4.23;3.87;;;29.20;42.00;;;;;;5005143;28;20436;-73
2022/07/18 10:56:36;;;;;;;4.60;4.20;;;29.30;41.80;;;;;;4999867;28;20452;-73
2022/07/18 10:59:24;;;;;;;3.77;3.47;;;29.40;40.60;;;;;;4994550;28;20808;-72
2022/07/18 11:01:55;;;;;;;4.10;3.80;;;29.50;41.50;;;;;;4996137;28;20479;-73
2022/07/18 11:04:23;;;;;;;5.13;3.80;;;29.60;41.50;;;;;;4999548;28;20507;-72
2022/07/18 11:07:04;;;;;;;5.33;4.07;;;29.70;41.10;;;;;;4992526;28;20815;-73
2022/07/18 11:09:38;;;;;;;4.93;3.90;;;29.70;41.50;;;;;;4996465;28;20435;-73
2022/07/18 11:12:20;;;;;;;4.07;3.77;;;29.80;41.50;;;;;;5000607;28;20897;-73
2022/07/18 11:15:06;;;;;;;4.70;3.63;;;29.90;41.40;;;;;;5002584;28;20502;-73
2022/07/18 11:17:55;;;;;;;4.23;3.90;;;29.90;40.60;;;;;;4999553;28;20444;-73
2022/07/18 11:20:40;;;;;;;4.60;3.70;;;30.00;40.50;;;;;;5000169;28;21031;-73
2022/07/18 11:23:27;;;;;;;6.00;3.10;;;30.10;40.10;;;;;;5003977;28;20542;-72
2022/07/18 11:25:58;;;;;;;4.13;3.80;;;30.10;39.30;;;;;;5019706;28;20433;-73
2022/07/18 11:28:28;;;;;;;4.17;3.87;;;30.20;40.20;;;;;;5003678;28;20492;-73
2022/07/18 11:31:06;;;;;;;3.60;3.30;;;30.40;40.00;;;;;;5003224;28;20428;-73
2022/07/18 11:33:37;;;;;;;3.63;3.33;;;30.60;39.00;;;;;;5002505;28;20438;-73
2022/07/18 11:36:18;;;;;;;5.80;4.00;;;30.50;38.80;;;;;;5005859;28;20463;-71
2022/07/18 11:38:48;;;;;;;4.43;4.07;;;30.60;39.80;;;;;;5002627;28;20432;-72
2022/07/18 11:41:14;;;;;;;4.20;3.83;;;30.70;38.90;;;;;;5001045;28;20436;-71
2022/07/18 11:43:42;;;;;;;4.60;4.20;;;30.80;38.50;;;;;;5003192;28;20413;-73
2022/07/18 11:46:10;;;;;;;4.60;3.80;;;31.00;39.00;;;;;;5002069;28;20435;-70
2022/07/18 11:48:37;;;;;;;4.57;4.17;;;31.20;38.60;;;;;;5002946;28;20809;-71
2022/07/18 11:51:09;;;;;;;4.60;3.83;;;31.40;38.70;;;;;;5001309;28;20499;-71
2022/07/18 11:53:35;;;;;;;5.57;3.60;;;31.70;39.00;;;;;;5003523;28;20447;-71
2022/07/18 11:56:04;;;;;;;5.23;4.13;;;32.00;38.30;;;;;;5003360;28;20460;-72
2022/07/18 11:58:36;;;;;;;5.80;3.90;;;32.30;38.10;;;;;;5001188;28;20203;-71
2022/07/18 12:01:03;;;;;;;4.00;3.70;;;32.60;37.00;;;;;;5001683;28;20441;-71
2022/07/18 12:03:29;;;;;;;5.30;3.53;;;33.00;36.50;;;;;;5004701;28;20828;-74
2022/07/18 12:05:55;;;;;;;4.00;3.70;;;33.30;36.00;;;;;;5002454;28;20420;-71
2022/07/18 12:08:41;;;;;;;3.63;3.33;;;33.80;36.60;;;;;;4995702;28;20501;-72
2022/07/18 12:11:24;;;;;;;5.50;3.33;;;34.90;35.40;;;;;;4999924;28;20409;-72
2022/07/18 12:14:14;;;;;;;3.87;3.57;;;36.50;34.80;;;;;;5001322;28;20402;-72
2022/07/18 12:16:42;;;;;;;3.73;3.43;;;38.70;32.50;;;;;;4999994;28;20406;-72
2022/07/18 12:19:16;;;;;;;4.13;3.00;;;40.10;31.20;;;;;;5001785;28;20825;-71
2022/07/18 12:21:49;;;;;;;3.90;3.50;;;41.40;29.90;;;;;;4997293;28;20420;-71
2022/07/18 12:24:32;;;;;;;3.90;3.13;;;42.70;29.30;;;;;;4997611;28;20434;-71
2022/07/18 12:27:08;;;;;;;3.40;3.10;;;43.70;28.00;;;;;;5005408;28;20447;-71
2022/07/18 12:30:05;;;;;;;4.03;3.63;;;44.50;27.00;;;;;;5002407;28;20975;-71
2022/07/18 12:32:41;;;;;;;3.63;3.33;;;45.20;26.90;;;;;;4998522;28;20502;-71
2022/07/18 12:35:12;;;;;;;4.60;4.20;;;45.60;26.60;;;;;;5004664;28;20423;-69
2022/07/18 12:37:39;;;;;;;4.27;3.87;;;46.10;26.20;;;;;;5003887;28;20478;-72
2022/07/18 12:40:09;;;;;;;6.13;5.30;;;46.60;25.90;;;;;;5002040;28;20436;-72
2022/07/18 12:42:42;;;;;;;4.83;3.67;;;46.70;25.30;;;;;;5002829;28;20448;-72
2022/07/18 12:45:09;;;;;;;3.43;3.13;;;46.40;25.10;;;;;;5004508;28;20423;-70
2022/07/18 12:47:35;;;;;;;3.87;3.57;;;46.40;25.30;;;;;;5006396;28;20455;-69
2022/07/18 12:50:01;;;;;;;2.80;2.60;;;46.50;24.80;;;;;;5001743;28;20431;-72
2022/07/18 12:52:27;;;;;;;3.30;3.00;;;46.70;24.70;;;;;;5001829;28;20208;-71